createdAt,value
2022-12-29T00:02:48.655Z,8.50
2022-12-29T00:07:52.690Z,8.50
2022-12-29T00:13:13.014Z,8.60
2022-12-29T00:18:15.764Z,8.60
2022-12-29T00:23:40.045Z,8.80
2022-12-29T00:29:00.520Z,8.80
2022-12-29T00:34:21.014Z,9.20
2022-12-29T00:39:42.791Z,9.60
2022-12-29T00:44:45.494Z,9.90
2022-12-29T00:49:48.152Z,10.10
2022-12-29T00:54:52.165Z,10.50
2022-12-29T00:59:54.884Z,10.60
2022-12-29T01:04:57.550Z,10.40
2022-12-29T01:10:15.660Z,10.00
2022-12-29T01:15:18.391Z,9.80
2022-12-29T01:20:21.119Z,9.70
2022-12-29T01:25:25.279Z,9.60
2022-12-29T01:30:27.963Z,9.40
2022-12-29T01:35:30.724Z,9.10
2022-12-29T01:40:34.732Z,9.00
2022-12-29T01:45:37.740Z,8.90
2022-12-29T01:50:43.590Z,8.80
2022-12-29T01:55:51.896Z,8.80
2022-12-29T02:00:54.653Z,8.80
2022-12-29T02:06:03.933Z,8.70
2022-12-29T02:11:08.892Z,8.60
2022-12-29T02:16:23.731Z,8.50
2022-12-29T02:21:50.031Z,8.50
2022-12-29T02:27:19.336Z,8.40
2022-12-29T02:32:32.877Z,8.50
2022-12-29T02:37:44.583Z,8.70
2022-12-29T02:42:51.888Z,8.80
2022-12-29T02:48:03.042Z,8.90
2022-12-29T02:53:09.855Z,9.00
2022-12-29T02:58:21.239Z,9.10
2022-12-29T03:03:35.155Z,9.20
2022-12-29T03:08:46.182Z,9.20
2022-12-29T03:14:10.662Z,9.30
2022-12-29T03:19:19.359Z,9.40
2022-12-29T03:24:24.810Z,9.40
2022-12-29T03:29:31.351Z,9.40
2022-12-29T03:34:37.171Z,9.40
2022-12-29T03:39:40.227Z,9.40
2022-12-29T03:44:45.457Z,9.40
2022-12-29T03:49:50.624Z,9.50
2022-12-29T03:54:53.322Z,9.50
2022-12-29T03:59:56.041Z,9.60
2022-12-29T04:05:00.064Z,9.60
2022-12-29T04:10:02.789Z,9.60
2022-12-29T04:15:07.307Z,9.60
2022-12-29T04:20:29.871Z,9.60
2022-12-29T04:25:33.344Z,9.60
2022-12-29T04:30:37.105Z,9.70
2022-12-29T04:35:41.279Z,9.70
2022-12-29T04:40:45.167Z,9.70
2022-12-29T04:45:48.369Z,9.70
2022-12-29T04:50:52.530Z,9.80
2022-12-29T04:55:55.771Z,9.80
2022-12-29T05:00:58.521Z,9.90
2022-12-29T05:06:02.587Z,10.10
2022-12-29T05:11:06.275Z,10.20
2022-12-29T05:16:09.113Z,10.20
2022-12-29T05:21:13.279Z,10.30
2022-12-29T05:26:15.957Z,10.30
2022-12-29T05:44:58.182Z,10.30
2022-12-29T06:15:43.471Z,10.30
2022-12-29T06:22:04.379Z,10.40
2022-12-29T06:28:01.863Z,10.30
2022-12-29T06:39:53.469Z,10.30
2022-12-29T06:51:58.025Z,10.00
2022-12-29T07:21:59.082Z,9.40
2022-12-29T07:39:03.417Z,9.40
2022-12-29T07:50:22.613Z,9.60
2022-12-29T07:55:38.873Z,9.60
2022-12-29T08:06:36.302Z,9.90
2022-12-29T08:12:02.322Z,10.20
2022-12-29T08:17:47.793Z,10.40
2022-12-29T08:22:50.526Z,10.70
2022-12-29T08:28:40.036Z,11.00
2022-12-29T08:34:06.084Z,11.60
2022-12-29T08:40:26.546Z,11.60
2022-12-29T09:09:36.730Z,12.60
2022-12-29T09:28:43.306Z,12.60
2022-12-29T09:41:43.481Z,12.20
2022-12-29T09:47:43.160Z,12.40
2022-12-29T10:32:38.016Z,22.40
2022-12-29T11:47:49.076Z,15.90
2022-12-29T11:53:29.189Z,15.70
2022-12-29T11:58:50.549Z,16.30
2022-12-29T12:04:43.373Z,16.10
2022-12-29T12:16:14.142Z,15.70
2022-12-29T12:22:03.367Z,15.30
2022-12-29T12:28:46.003Z,14.90
2022-12-29T12:41:26.320Z,15.20
2022-12-29T13:00:17.686Z,15.30
2022-12-29T13:19:00.454Z,15.30
2022-12-29T13:25:39.056Z,15.70
2022-12-29T14:01:57.156Z,15.30
2022-12-29T14:07:57.004Z,15.00
2022-12-29T14:14:04.106Z,14.90
2022-12-29T15:04:39.145Z,13.90
2022-12-29T15:23:03.769Z,13.30
2022-12-29T15:47:25.821Z,13.00
2022-12-29T15:59:18.825Z,13.00
2022-12-29T16:54:52.397Z,12.30
2022-12-29T17:12:44.576Z,12.30
2022-12-29T17:18:22.347Z,12.30
2022-12-29T17:23:59.005Z,12.10
2022-12-29T17:29:23.703Z,12.10
2022-12-29T17:34:27.807Z,11.90
2022-12-29T17:39:30.572Z,12.00
2022-12-29T17:44:33.275Z,11.70
2022-12-29T17:49:37.281Z,11.70
2022-12-29T17:54:44.262Z,11.60
2022-12-29T17:59:47.043Z,11.40
2022-12-29T18:04:51.186Z,11.40
2022-12-29T18:09:53.891Z,11.30
2022-12-29T18:14:57.157Z,11.20
2022-12-29T18:20:01.159Z,11.20
2022-12-29T18:25:04.855Z,11.20
2022-12-29T18:30:08.448Z,11.20
2022-12-29T18:35:18.784Z,11.10
2022-12-29T18:40:21.488Z,11.00
2022-12-29T18:45:25.311Z,10.90
2022-12-29T18:50:29.316Z,11.00
2022-12-29T18:55:32.474Z,11.40
2022-12-29T19:00:35.301Z,11.20
2022-12-29T19:05:41.601Z,11.10
2022-12-29T19:10:46.585Z,11.00
2022-12-29T19:15:49.883Z,10.80
2022-12-29T19:20:57.910Z,10.60
2022-12-29T19:26:00.913Z,10.70
2022-12-29T19:31:04.709Z,11.00
2022-12-29T19:36:10.601Z,11.10
2022-12-29T19:41:15.098Z,11.10
2022-12-29T19:46:20.483Z,10.90
2022-12-29T19:51:25.275Z,10.70
2022-12-29T19:56:28.285Z,10.70
2022-12-29T20:01:34.453Z,10.60
2022-12-29T20:06:39.920Z,10.50
2022-12-29T20:11:43.354Z,10.40
2022-12-29T20:17:09.592Z,10.30
2022-12-29T20:22:12.490Z,10.30
2022-12-29T20:27:17.170Z,10.30
2022-12-29T20:32:27.023Z,10.20
2022-12-29T20:37:31.412Z,9.90
2022-12-29T20:42:34.853Z,9.80
2022-12-29T20:47:37.719Z,9.70
2022-12-29T20:52:41.786Z,9.60
2022-12-29T20:58:21.838Z,9.70
2022-12-29T21:03:09.274Z,9.70
2022-12-29T21:08:13.981Z,9.40
2022-12-29T21:13:18.029Z,9.30
2022-12-29T21:18:21.360Z,9.20
2022-12-29T21:23:27.700Z,9.10
2022-12-29T21:28:30.814Z,9.10
2022-12-29T21:33:34.080Z,9.60
2022-12-29T21:38:45.798Z,9.90
2022-12-29T21:44:13.153Z,9.90
2022-12-29T21:49:16.325Z,9.80
2022-12-29T23:20:48.019Z,9.70
2022-12-29T23:25:51.994Z,9.80
2022-12-29T23:31:32.292Z,9.80
2022-12-29T23:43:04.219Z,9.70
2022-12-29T23:54:46.282Z,9.60
